Airfield :
LOGIN :

Register | Disclaimer

   EN    FR    IT 

 










Legend :    VFR   Marginal VFR   IFR   Intensive IFR   Very Intensive IFR
Visi :
Ceiling :
>= 8 km
>= 3000ft
5 to 8 km
1000 to 3000 ft
1500m to 5 km
500 to 1000 ft
800 to 1500m
200 to 500 ft
< 800m
< 200 ft
Symbols :   Thunderstorms  Fog  Heavy snow  Heavy precipitations  Wind > 20 kt
SIGMETs :     Misc.  Thunderstorms  Icing  Turbulence  Mountain Waves  Volcanic Ashes







- Airport Elevation : 386 ft
- IATA code : QOE


ETNN - Nörvenich Airforce Base

CURRENT METAR :
  • 240520Z 15004KT 9999 -RA SCT010 BKN030 08/08 Q1005 BLU BLU TEMPO YLO

EXPIRED METARs :
  • 240420Z AUTO VRB02KT 2500 // ////// 08/08 Q1006 ///
  • 240320Z AUTO 34010KT 2400 // ////// 09/08 Q1006 ///

TAF TAF ETNN
Valid from the 24 at 06:00 until the 24 at 15:00 UTC


240522Z 2406/2415 20005KT 7000 -RA SCT008 BKN030
TEMPO 2406/2408 30010G20KT 3000 SHRA SCT004 BKN010CB
BECMG 2408/2410 30005KT 4000 -RADZ SCT005 BKN008 OVC015
TEMPO 2408/2412 33007KT 2000 RADZ BKN003 BY ETGL
No reported NOTAMs for that airfield.



MET'MAP, your aeronautical weather chart ! - Copyright ORBIFLY December 2007 - Disclaimer

ORBIFLY MET'MAP TEAM :

Programming & Development : Alexandra Zaïnal
Concept & Development : Baudouin d'Aumeries
Co-Development & Prog : Marc-Olivier Méhu
Technical & hardware support : Manuel Goepfert

Contact : metmap@orbifly.com




SOURCES & CREDITS :

   NOAA